createdAt,value
2023-03-26T00:00:44.706Z,18.23
2023-03-26T00:03:13.031Z,21.23
2023-03-26T00:05:41.017Z,16.02
2023-03-26T00:08:08.951Z,20.98
2023-03-26T00:10:40.152Z,17.55
2023-03-26T00:15:34.850Z,17.80
2023-03-26T00:18:02.647Z,17.38
2023-03-26T00:20:32.911Z,18.27
2023-03-26T00:23:03.811Z,23.07
2023-03-26T00:25:32.034Z,19.40
2023-03-26T00:27:59.253Z,19.25
2023-03-26T00:30:26.697Z,20.88
2023-03-26T00:32:54.163Z,20.75
2023-03-26T00:35:22.463Z,19.45
2023-03-26T00:37:51.579Z,20.27
2023-03-26T00:40:18.837Z,21.05
2023-03-26T00:42:45.966Z,22.55
2023-03-26T00:45:13.158Z,22.02
2023-03-26T00:47:40.468Z,21.15
2023-03-26T00:50:15.407Z,18.30
2023-03-26T00:52:43.874Z,24.83
2023-03-26T00:55:11.105Z,23.85
2023-03-26T00:57:40.265Z,24.35
2023-03-26T01:00:17.143Z,21.98
2023-03-26T01:02:45.475Z,24.67
2023-03-26T01:05:31.267Z,21.27
2023-03-26T01:07:58.546Z,24.52
2023-03-26T01:10:25.731Z,26.45
2023-03-26T01:12:52.823Z,22.67
2023-03-26T01:15:20.044Z,21.55
2023-03-26T01:17:47.193Z,23.75
2023-03-26T01:20:20.561Z,24.83
2023-03-26T01:22:51.080Z,21.48
2023-03-26T01:25:18.426Z,24.15
2023-03-26T01:27:50.157Z,24.13
2023-03-26T01:30:17.329Z,23.55
2023-03-26T01:33:04.135Z,24.45
2023-03-26T01:35:50.124Z,18.17
2023-03-26T01:38:24.617Z,16.98
2023-03-26T01:41:00.904Z,14.77
2023-03-26T01:43:40.352Z,15.85
2023-03-26T01:46:09.128Z,14.75
2023-03-26T01:48:40.595Z,12.57
2023-03-26T01:51:08.245Z,12.88
2023-03-26T01:53:37.848Z,12.55
2023-03-26T01:56:17.116Z,12.15
2023-03-26T01:59:04.320Z,14.10
2023-03-26T02:01:37.800Z,13.82
2023-03-26T02:04:12.039Z,13.73
2023-03-26T02:06:43.655Z,10.18
2023-03-26T02:09:13.457Z,10.40
2023-03-26T02:11:41.564Z,9.30
2023-03-26T02:14:09.883Z,8.45
2023-03-26T02:16:37.001Z,9.48
2023-03-26T02:19:04.460Z,7.60
2023-03-26T02:21:34.092Z,6.50
2023-03-26T02:24:06.940Z,5.88
2023-03-26T02:26:35.374Z,6.63
2023-03-26T02:29:03.089Z,6.63
2023-03-26T02:31:30.406Z,4.22
2023-03-26T02:33:57.831Z,3.97
2023-03-26T02:36:27.835Z,3.45
2023-03-26T02:38:57.850Z,2.60
2023-03-26T02:41:25.155Z,2.85
2023-03-26T02:43:52.292Z,3.55
2023-03-26T02:46:19.464Z,2.85
2023-03-26T02:48:46.725Z,2.35
2023-03-26T02:51:13.898Z,3.63
2023-03-26T02:53:41.273Z,2.65
2023-03-26T02:56:08.587Z,3.50
2023-03-26T02:58:35.705Z,2.60
2023-03-26T03:01:03.210Z,2.83
2023-03-26T03:03:30.671Z,2.78
2023-03-26T03:05:58.218Z,3.28
2023-03-26T03:08:28.127Z,2.53
2023-03-26T03:11:01.434Z,2.75
2023-03-26T03:13:28.666Z,3.60
2023-03-26T03:15:56.499Z,2.53
2023-03-26T03:18:23.855Z,2.42
2023-03-26T03:20:51.202Z,3.58
2023-03-26T03:23:18.459Z,3.03
2023-03-26T03:25:45.655Z,3.28
2023-03-26T03:28:13.819Z,3.78
2023-03-26T03:30:41.808Z,2.88
2023-03-26T03:33:09.056Z,6.75
2023-03-26T03:35:37.774Z,3.17
2023-03-26T03:38:04.953Z,4.57
2023-03-26T03:40:32.077Z,4.60
2023-03-26T03:42:59.199Z,2.97
2023-03-26T03:45:26.354Z,2.83
2023-03-26T03:47:54.056Z,2.92
2023-03-26T03:50:21.646Z,4.68
2023-03-26T03:52:48.763Z,3.58
2023-03-26T03:55:15.927Z,4.90
2023-03-26T03:57:43.012Z,4.00
2023-03-26T04:00:11.754Z,5.07
2023-03-26T04:02:39.127Z,6.00
2023-03-26T04:05:07.322Z,5.65
2023-03-26T04:07:34.470Z,7.20
2023-03-26T04:10:04.581Z,6.97
2023-03-26T04:12:32.104Z,6.53
2023-03-26T04:14:59.707Z,9.00
2023-03-26T04:17:27.268Z,5.95
2023-03-26T04:19:55.012Z,7.03
2023-03-26T04:22:23.524Z,7.10
2023-03-26T04:24:54.630Z,5.00
2023-03-26T04:29:50.311Z,6.55
2023-03-26T04:32:24.704Z,5.45
2023-03-26T04:34:52.505Z,6.35
2023-03-26T04:37:26.638Z,6.05
2023-03-26T04:39:55.042Z,6.38
2023-03-26T04:42:22.343Z,5.78
2023-03-26T04:44:52.656Z,6.00
2023-03-26T04:47:19.823Z,6.93
2023-03-26T04:49:47.467Z,5.82
2023-03-26T04:52:15.406Z,9.95
2023-03-26T04:54:44.157Z,5.22
2023-03-26T04:57:23.593Z,5.57
2023-03-26T04:59:51.384Z,8.63
2023-03-26T05:02:18.901Z,6.70
2023-03-26T05:04:46.347Z,6.53
2023-03-26T05:07:17.533Z,8.73
2023-03-26T05:09:44.631Z,4.95
2023-03-26T05:12:11.876Z,6.05
2023-03-26T05:14:38.933Z,5.57
2023-03-26T05:17:06.242Z,5.60
2023-03-26T05:19:33.524Z,5.93
2023-03-26T05:22:00.870Z,6.97
2023-03-26T05:24:28.746Z,5.45
2023-03-26T05:26:56.269Z,4.72
2023-03-26T05:29:24.213Z,6.75
2023-03-26T05:31:51.675Z,6.05
2023-03-26T05:34:20.596Z,5.93
2023-03-26T05:36:48.593Z,5.53
2023-03-26T05:39:15.725Z,4.50
2023-03-26T05:41:42.863Z,4.63
2023-03-26T05:44:09.955Z,7.32
2023-03-26T05:46:37.166Z,11.07
2023-03-26T05:49:04.391Z,7.45
2023-03-26T05:51:31.527Z,8.02
2023-03-26T05:53:58.689Z,7.30
2023-03-26T05:56:25.900Z,6.60
2023-03-26T05:58:52.973Z,7.55
2023-03-26T06:01:20.784Z,4.53
2023-03-26T06:03:47.988Z,6.63
2023-03-26T06:06:16.451Z,7.72
2023-03-26T06:08:46.789Z,5.53
2023-03-26T06:11:13.972Z,8.23
2023-03-26T06:13:41.148Z,7.07
2023-03-26T06:16:09.277Z,6.93
2023-03-26T06:18:56.893Z,5.50
2023-03-26T06:23:51.972Z,6.82
2023-03-26T06:26:19.230Z,6.07
2023-03-26T06:28:46.483Z,6.57
2023-03-26T06:31:13.713Z,5.82
2023-03-26T06:33:41.035Z,5.88
2023-03-26T06:36:08.363Z,4.65
2023-03-26T06:38:35.571Z,8.02
2023-03-26T06:41:03.666Z,4.18
2023-03-26T06:43:34.014Z,7.25
2023-03-26T06:46:04.468Z,6.68
2023-03-26T06:48:31.998Z,6.85
2023-03-26T06:50:59.189Z,5.68
2023-03-26T06:53:26.524Z,5.38
2023-03-26T06:55:54.339Z,5.28
2023-03-26T06:58:21.457Z,6.80
2023-03-26T07:00:48.742Z,4.85
2023-03-26T07:03:17.273Z,6.68
2023-03-26T07:05:44.480Z,6.57
2023-03-26T07:08:11.660Z,5.72
2023-03-26T07:10:38.783Z,5.70
2023-03-26T07:13:06.072Z,6.65
2023-03-26T07:15:33.309Z,5.07
2023-03-26T07:18:00.562Z,5.00
2023-03-26T07:20:27.815Z,4.70
2023-03-26T07:22:55.276Z,4.60
2023-03-26T07:25:22.554Z,5.00
2023-03-26T07:28:06.858Z,4.40
2023-03-26T07:30:52.768Z,5.13
2023-03-26T07:33:28.707Z,6.68
2023-03-26T07:35:58.895Z,5.80
2023-03-26T07:38:34.396Z,4.93
2023-03-26T07:41:16.651Z,5.75
2023-03-26T07:43:55.278Z,4.93
2023-03-26T07:46:28.438Z,6.72
2023-03-26T07:48:58.409Z,4.93
2023-03-26T07:51:25.831Z,6.35
2023-03-26T07:53:53.039Z,4.15
2023-03-26T07:56:22.209Z,6.72
2023-03-26T07:58:49.364Z,5.30
2023-03-26T08:01:43.014Z,4.28
2023-03-26T08:04:24.719Z,5.05
2023-03-26T08:06:59.029Z,4.60
2023-03-26T08:09:31.845Z,6.20
2023-03-26T08:11:59.070Z,4.93
2023-03-26T08:14:41.629Z,7.22
2023-03-26T08:17:12.202Z,6.22
2023-03-26T08:19:40.789Z,3.45
2023-03-26T08:22:11.542Z,4.40
2023-03-26T08:24:57.245Z,5.70
2023-03-26T08:27:29.792Z,7.95
2023-03-26T08:30:17.917Z,4.35
2023-03-26T08:32:50.550Z,4.82
2023-03-26T08:35:17.920Z,6.28
2023-03-26T08:37:45.362Z,6.75
2023-03-26T08:40:13.648Z,4.43
2023-03-26T08:42:49.861Z,6.10
2023-03-26T08:45:47.898Z,6.43
2023-03-26T08:48:15.492Z,4.93
2023-03-26T08:50:49.956Z,6.15
2023-03-26T08:53:19.865Z,7.03
2023-03-26T08:55:58.097Z,6.93
2023-03-26T08:58:25.141Z,7.97
2023-03-26T09:00:55.477Z,7.22
2023-03-26T09:03:41.534Z,8.43
2023-03-26T09:06:15.418Z,8.20
2023-03-26T09:08:53.737Z,6.53
2023-03-26T09:11:44.727Z,7.72
2023-03-26T09:14:30.725Z,8.05
2023-03-26T09:17:12.882Z,7.50
2023-03-26T09:19:48.715Z,8.98
2023-03-26T09:22:21.544Z,8.63
2023-03-26T09:24:48.604Z,8.43
2023-03-26T09:27:28.137Z,10.50
2023-03-26T09:30:13.661Z,8.75
2023-03-26T09:32:51.868Z,9.40
2023-03-26T09:35:21.789Z,10.07
2023-03-26T09:37:56.958Z,10.77
2023-03-26T09:40:29.589Z,10.32
2023-03-26T09:43:24.706Z,9.95
2023-03-26T09:45:57.731Z,12.02
2023-03-26T09:48:34.165Z,10.88
2023-03-26T09:51:10.398Z,10.25
2023-03-26T09:53:38.484Z,13.23
2023-03-26T09:56:12.817Z,10.48
2023-03-26T09:58:40.860Z,11.52
2023-03-26T10:01:12.561Z,12.65
2023-03-26T10:03:50.502Z,12.52
2023-03-26T10:06:20.611Z,14.02
2023-03-26T10:09:14.048Z,13.60
2023-03-26T10:12:00.831Z,13.93
2023-03-26T10:14:34.208Z,13.35
2023-03-26T10:17:15.581Z,15.88
2023-03-26T10:19:58.238Z,15.20
2023-03-26T10:22:31.217Z,17.40
2023-03-26T10:25:17.563Z,16.55
2023-03-26T10:27:58.149Z,16.05
2023-03-26T10:30:44.209Z,14.57
2023-03-26T10:33:14.217Z,14.60
2023-03-26T10:36:00.752Z,14.05
2023-03-26T10:38:33.664Z,14.70
2023-03-26T10:41:12.365Z,14.98
2023-03-26T10:43:42.611Z,16.75
2023-03-26T10:46:32.402Z,17.40
2023-03-26T10:49:04.603Z,16.48
2023-03-26T10:51:50.465Z,16.42
2023-03-26T10:54:30.928Z,15.85
2023-03-26T10:56:58.487Z,19.83
2023-03-26T10:59:27.544Z,14.73
2023-03-26T11:02:13.236Z,13.32
2023-03-26T11:04:46.483Z,16.00
2023-03-26T11:07:32.171Z,15.82
2023-03-26T11:10:05.247Z,14.07
2023-03-26T11:12:42.831Z,12.32
2023-03-26T11:15:25.292Z,15.40
2023-03-26T11:18:09.041Z,11.02
2023-03-26T11:20:42.448Z,12.23
2023-03-26T11:23:21.614Z,10.88
2023-03-26T11:26:03.732Z,13.32
2023-03-26T11:29:03.743Z,11.10
2023-03-26T11:31:52.272Z,11.40
2023-03-26T11:34:22.004Z,10.90
2023-03-26T11:36:52.535Z,9.43
2023-03-26T11:39:24.944Z,9.90
2023-03-26T11:41:53.651Z,9.50
2023-03-26T11:44:26.658Z,10.60
2023-03-26T11:47:01.317Z,7.10
2023-03-26T11:49:29.630Z,9.60
2023-03-26T11:51:56.765Z,8.63
2023-03-26T11:54:23.858Z,9.52
2023-03-26T11:57:05.852Z,10.35
2023-03-26T11:59:53.316Z,8.90
2023-03-26T12:02:29.916Z,8.73
2023-03-26T12:05:18.516Z,10.43
2023-03-26T12:07:56.919Z,10.27
2023-03-26T12:10:26.012Z,8.63
2023-03-26T12:12:54.712Z,7.57
2023-03-26T12:15:22.394Z,7.70
2023-03-26T12:17:53.562Z,7.15
2023-03-26T12:20:26.758Z,8.45
2023-03-26T12:22:53.911Z,9.27
2023-03-26T12:25:22.341Z,9.15
2023-03-26T12:27:50.901Z,8.55
2023-03-26T12:30:30.722Z,5.18
2023-03-26T12:33:03.726Z,5.60
2023-03-26T12:35:34.242Z,6.25
2023-03-26T12:38:21.895Z,5.13
2023-03-26T12:40:49.749Z,5.20
2023-03-26T12:44:52.752Z,5.53
2023-03-26T12:47:57.560Z,5.63
2023-03-26T12:49:19.762Z,3.58
2023-03-26T12:51:59.252Z,2.58
2023-03-26T12:54:34.788Z,3.17
2023-03-26T12:57:13.363Z,2.03
2023-03-26T12:59:59.400Z,3.00
2023-03-26T13:02:32.347Z,3.70
2023-03-26T13:05:09.416Z,5.75
2023-03-26T13:07:51.842Z,5.00
2023-03-26T13:10:31.054Z,7.65
2023-03-26T13:13:16.924Z,5.35
2023-03-26T13:15:47.913Z,4.18
2023-03-26T13:18:33.884Z,4.53
2023-03-26T13:21:08.931Z,3.95
2023-03-26T13:23:42.084Z,4.13
2023-03-26T13:26:24.335Z,5.53
2023-03-26T13:28:54.160Z,4.68
2023-03-26T13:31:30.390Z,4.50
2023-03-26T13:34:03.817Z,4.30
2023-03-26T13:36:36.105Z,4.63
2023-03-26T13:39:10.589Z,4.57
2023-03-26T13:41:57.988Z,6.78
2023-03-26T13:44:33.092Z,7.68
2023-03-26T13:47:04.035Z,4.40
2023-03-26T13:49:38.605Z,5.18
2023-03-26T13:52:11.302Z,6.18
2023-03-26T13:54:47.771Z,7.25
2023-03-26T13:57:31.941Z,6.43
2023-03-26T14:00:01.769Z,5.28
2023-03-26T14:02:36.525Z,5.45
2023-03-26T14:05:10.199Z,4.80
2023-03-26T14:07:43.162Z,4.78
2023-03-26T14:10:36.692Z,5.60
2023-03-26T14:13:07.777Z,4.97
2023-03-26T14:18:08.122Z,4.88
2023-03-26T14:20:41.457Z,4.32
2023-03-26T14:23:15.012Z,4.07
2023-03-26T14:25:48.035Z,4.05
2023-03-26T14:28:20.876Z,5.38
2023-03-26T14:30:48.415Z,4.22
2023-03-26T14:33:28.112Z,4.75
2023-03-26T14:36:09.182Z,3.70
2023-03-26T14:38:55.059Z,4.45
2023-03-26T14:41:45.787Z,4.85
2023-03-26T14:44:47.740Z,5.75
2023-03-26T14:47:16.805Z,6.40
2023-03-26T14:50:03.921Z,9.30
2023-03-26T14:52:50.008Z,6.60
2023-03-26T14:55:37.486Z,5.47
2023-03-26T14:58:24.469Z,5.50
2023-03-26T15:01:10.872Z,5.43
2023-03-26T15:03:48.915Z,6.82
2023-03-26T15:06:34.592Z,3.80
2023-03-26T15:09:13.857Z,5.32
2023-03-26T15:11:52.833Z,4.63
2023-03-26T15:14:40.287Z,5.55
2023-03-26T15:17:27.550Z,5.53
2023-03-26T15:19:54.727Z,6.18
2023-03-26T15:22:27.606Z,4.80
2023-03-26T15:25:20.542Z,5.40
2023-03-26T15:28:06.367Z,6.85
2023-03-26T15:30:42.649Z,5.43
2023-03-26T15:33:17.951Z,5.68
2023-03-26T15:35:45.368Z,5.20
2023-03-26T15:38:25.048Z,5.82
2023-03-26T15:40:52.159Z,7.00
2023-03-26T15:43:21.852Z,6.28
2023-03-26T15:45:54.091Z,7.15
2023-03-26T15:48:40.018Z,6.18
2023-03-26T15:51:32.812Z,7.25
2023-03-26T15:54:23.786Z,4.32
2023-03-26T15:57:04.315Z,5.30
2023-03-26T15:59:37.599Z,5.13
2023-03-26T16:02:10.353Z,6.28
2023-03-26T16:04:57.542Z,4.95
2023-03-26T16:07:30.190Z,6.30
2023-03-26T16:10:09.986Z,5.55
2023-03-26T16:12:46.960Z,4.25
2023-03-26T16:15:21.183Z,4.95
2023-03-26T16:18:08.350Z,5.38
2023-03-26T16:20:46.670Z,6.43
2023-03-26T16:23:27.400Z,5.72
2023-03-26T16:25:57.822Z,4.78
2023-03-26T16:28:28.406Z,7.88
2023-03-26T16:31:23.348Z,6.40
2023-03-26T16:34:08.015Z,7.40
2023-03-26T16:36:35.853Z,8.02
2023-03-26T16:39:06.154Z,8.85
2023-03-26T16:41:34.191Z,8.33
2023-03-26T16:44:02.262Z,7.88
2023-03-26T16:46:33.327Z,6.68
2023-03-26T16:49:03.409Z,8.07
2023-03-26T16:51:36.746Z,8.50
2023-03-26T16:54:22.777Z,9.98
2023-03-26T16:57:16.132Z,6.82
2023-03-26T17:00:07.591Z,9.07
2023-03-26T17:02:45.785Z,11.07
2023-03-26T17:05:21.202Z,9.00
2023-03-26T17:07:51.381Z,11.80
2023-03-26T17:10:39.556Z,11.38
2023-03-26T17:13:17.194Z,11.45
2023-03-26T17:15:49.092Z,12.88
2023-03-26T17:18:27.506Z,11.98
2023-03-26T17:21:01.082Z,11.70
2023-03-26T17:23:39.663Z,10.15
2023-03-26T17:26:12.161Z,9.20
2023-03-26T17:28:58.080Z,9.25
2023-03-26T17:31:34.476Z,8.90
2023-03-26T17:34:20.731Z,6.88
2023-03-26T17:36:56.095Z,7.32
2023-03-26T17:39:46.158Z,11.95
2023-03-26T17:42:16.310Z,8.40
2023-03-26T17:44:45.530Z,8.50
2023-03-26T17:47:23.168Z,8.75
2023-03-26T17:49:52.471Z,14.50
2023-03-26T17:52:24.794Z,9.18
2023-03-26T17:54:53.080Z,11.55
2023-03-26T17:57:26.056Z,11.95
2023-03-26T17:59:56.685Z,13.20
2023-03-26T18:02:31.722Z,14.07
2023-03-26T18:04:59.822Z,15.13
2023-03-26T18:07:45.144Z,14.05
2023-03-26T18:10:28.737Z,14.93
2023-03-26T18:13:15.825Z,14.68
2023-03-26T18:15:46.020Z,17.77
2023-03-26T18:18:21.476Z,13.30
2023-03-26T18:20:49.197Z,13.57
2023-03-26T18:23:27.285Z,16.42
2023-03-26T18:25:58.970Z,14.35
2023-03-26T18:28:35.984Z,12.77
2023-03-26T18:31:10.781Z,15.52
2023-03-26T18:33:45.366Z,14.77
2023-03-26T18:36:13.361Z,15.65
2023-03-26T18:38:42.441Z,15.05
2023-03-26T18:41:16.436Z,16.13
2023-03-26T18:43:44.146Z,13.90
2023-03-26T18:46:13.644Z,18.35
2023-03-26T18:48:41.083Z,16.60
2023-03-26T18:51:08.426Z,16.98
2023-03-26T18:53:40.149Z,18.70
2023-03-26T18:56:21.390Z,18.33
2023-03-26T18:58:52.819Z,17.85
2023-03-26T19:01:25.820Z,18.92
2023-03-26T19:03:53.982Z,17.73
2023-03-26T19:06:21.273Z,18.30
2023-03-26T19:08:48.709Z,15.20
2023-03-26T19:11:17.467Z,14.48
2023-03-26T19:13:46.340Z,14.90
2023-03-26T19:16:20.888Z,15.32
2023-03-26T19:18:48.062Z,15.80
2023-03-26T19:21:17.959Z,14.38
2023-03-26T19:23:46.815Z,15.45
2023-03-26T19:26:14.374Z,15.38
2023-03-26T19:28:49.412Z,15.10
2023-03-26T19:31:16.553Z,14.50
2023-03-26T19:33:44.371Z,17.02
2023-03-26T19:36:14.813Z,14.15
2023-03-26T19:38:52.374Z,13.90
2023-03-26T19:41:19.492Z,12.98
2023-03-26T19:43:50.694Z,14.73
2023-03-26T19:48:49.253Z,11.90
2023-03-26T19:51:21.004Z,10.95
2023-03-26T19:53:55.518Z,9.88
2023-03-26T19:56:23.014Z,10.40
2023-03-26T19:58:50.307Z,9.80
2023-03-26T20:01:22.827Z,12.55
2023-03-26T20:03:51.605Z,11.85
2023-03-26T20:06:22.195Z,10.60
2023-03-26T20:08:55.248Z,12.35
2023-03-26T20:11:23.550Z,11.63
2023-03-26T20:13:51.055Z,12.70
2023-03-26T20:16:26.921Z,11.55
2023-03-26T20:18:57.201Z,13.43
2023-03-26T20:21:27.394Z,13.13
2023-03-26T20:23:54.725Z,9.65
2023-03-26T20:26:23.196Z,11.38
2023-03-26T20:28:53.380Z,11.45
2023-03-26T20:31:22.316Z,13.10
2023-03-26T20:33:50.612Z,11.90
2023-03-26T20:36:33.329Z,12.52
2023-03-26T20:39:02.393Z,11.70
2023-03-26T20:41:29.570Z,10.30
2023-03-26T20:43:56.914Z,9.38
2023-03-26T20:46:30.781Z,9.38
2023-03-26T20:48:59.555Z,11.02
2023-03-26T20:51:28.269Z,9.50
2023-03-26T20:53:56.078Z,10.77
2023-03-26T20:56:23.459Z,8.45
2023-03-26T20:59:03.639Z,9.40
2023-03-26T21:01:35.467Z,9.38
2023-03-26T21:04:04.327Z,8.98
2023-03-26T21:06:31.644Z,8.25
2023-03-26T21:08:58.997Z,8.73
2023-03-26T21:11:44.890Z,8.38
2023-03-26T21:14:21.217Z,7.60
2023-03-26T21:16:48.633Z,9.75
2023-03-26T21:19:16.216Z,9.90
2023-03-26T21:21:57.720Z,8.35
2023-03-26T21:24:40.027Z,7.38
2023-03-26T21:27:19.197Z,9.10
2023-03-26T21:29:46.646Z,7.85
2023-03-26T21:32:14.716Z,7.25
2023-03-26T21:34:55.776Z,8.77
2023-03-26T21:37:25.680Z,7.78
2023-03-26T21:39:53.050Z,8.73
2023-03-26T21:42:20.479Z,9.20
2023-03-26T21:44:47.953Z,9.57
2023-03-26T21:47:15.480Z,7.18
2023-03-26T21:49:42.767Z,10.57
2023-03-26T21:52:14.783Z,8.43
2023-03-26T21:54:43.327Z,7.90
2023-03-26T21:57:33.927Z,11.57
2023-03-26T22:00:18.737Z,9.53
2023-03-26T22:02:52.293Z,7.05
2023-03-26T22:05:21.585Z,7.47
2023-03-26T22:07:48.702Z,7.43
2023-03-26T22:10:16.286Z,7.03
2023-03-26T22:12:43.485Z,7.60
2023-03-26T22:15:13.702Z,7.72
2023-03-26T22:17:43.457Z,6.55
2023-03-26T22:20:13.032Z,5.95
2023-03-26T22:22:41.552Z,8.60
2023-03-26T22:25:10.371Z,6.13
2023-03-26T22:27:43.840Z,6.85
2023-03-26T22:30:12.597Z,7.20
2023-03-26T22:32:39.916Z,6.78
2023-03-26T22:35:07.250Z,9.52
2023-03-26T22:37:35.483Z,7.63
2023-03-26T22:40:05.963Z,6.50
2023-03-26T22:42:33.033Z,6.88
2023-03-26T22:45:00.153Z,7.13
2023-03-26T22:47:27.274Z,6.97
2023-03-26T22:49:54.397Z,6.88
2023-03-26T22:52:21.482Z,5.97
2023-03-26T22:54:48.585Z,6.80
2023-03-26T22:57:16.441Z,7.03
2023-03-26T22:59:43.737Z,6.82
2023-03-26T23:02:12.463Z,7.15
2023-03-26T23:04:39.748Z,6.60
2023-03-26T23:07:06.909Z,7.18
2023-03-26T23:09:34.071Z,8.52
2023-03-26T23:12:01.363Z,7.70
2023-03-26T23:14:28.736Z,5.28
2023-03-26T23:16:57.255Z,8.52
2023-03-26T23:19:24.517Z,7.20
2023-03-26T23:21:51.616Z,8.07
2023-03-26T23:24:18.791Z,7.28
2023-03-26T23:26:50.687Z,8.25
2023-03-26T23:29:18.418Z,7.20
2023-03-26T23:31:45.591Z,8.07
2023-03-26T23:34:13.535Z,6.70
2023-03-26T23:36:41.821Z,8.07
2023-03-26T23:39:09.286Z,8.65
2023-03-26T23:41:36.875Z,6.93
2023-03-26T23:44:04.319Z,5.90
2023-03-26T23:46:34.816Z,6.85
2023-03-26T23:49:04.868Z,7.38
2023-03-26T23:51:32.683Z,9.38
2023-03-26T23:54:00.491Z,7.80
2023-03-26T23:56:28.832Z,7.93
2023-03-26T23:58:56.228Z,7.75
